Time;durP1;ratioP1;P1;durP2;ratioP2;P2;SDS_P1;SDS_P2;PMS_P1;PMS_P2;Temp;Humidity;BMP_temperature;BMP_pressure;BME280_temperature;BME280_humidity;BME280_pressure;Samples;Min_cycle;Max_cycle;Signal;HPM_P1;HPM_P2
2021/05/11 00:01:15;;;;;;;2.43;2.23;;;16.30;99.90;;;;;;5085525;28;20216;-33
2021/05/11 00:03:44;;;;;;;3.03;2.23;;;16.30;99.90;;;;;;5089134;28;20829;-32
2021/05/11 00:06:11;;;;;;;2.10;2.00;;;16.20;99.90;;;;;;5087945;28;20195;-33
2021/05/11 00:08:37;;;;;;;3.00;2.10;;;16.20;99.90;;;;;;5065993;28;20454;-33
2021/05/11 00:11:03;;;;;;;2.37;2.20;;;16.00;99.90;;;;;;5066936;28;20419;-33
2021/05/11 00:13:29;;;;;;;2.73;2.53;;;16.00;99.90;;;;;;5068644;28;20434;-33
2021/05/11 00:15:55;;;;;;;2.80;2.43;;;16.00;99.90;;;;;;5070722;28;20427;-33
2021/05/11 00:18:21;;;;;;;2.70;2.50;;;16.00;99.90;;;;;;5086410;28;20192;-33
2021/05/11 00:20:46;;;;;;;2.83;2.63;;;16.00;99.90;;;;;;5088378;28;20215;-33
2021/05/11 00:23:12;;;;;;;5.00;2.97;;;16.00;99.90;;;;;;5061927;28;20447;-32
2021/05/11 00:25:38;;;;;;;3.40;3.20;;;15.90;99.90;;;;;;5068360;28;20196;-33
2021/05/11 00:28:04;;;;;;;4.40;3.10;;;15.80;99.90;;;;;;5068536;28;20243;-33
2021/05/11 00:30:30;;;;;;;3.23;2.90;;;15.80;99.90;;;;;;5068015;28;20683;-33
2021/05/11 00:32:55;;;;;;;3.40;3.10;;;15.60;99.90;;;;;;5068509;28;20424;-33
2021/05/11 00:35:21;;;;;;;3.33;3.03;;;15.70;99.90;;;;;;5068353;28;20189;-33
2021/05/11 00:37:47;;;;;;;3.30;3.00;;;15.60;99.90;;;;;;5057900;28;20204;-33
2021/05/11 00:40:12;;;;;;;3.43;3.23;;;15.60;99.90;;;;;;5062863;28;20298;-33
2021/05/11 00:42:38;;;;;;;3.70;3.40;;;15.50;99.90;;;;;;5070329;28;20273;-33
2021/05/11 00:45:05;;;;;;;4.60;3.77;;;15.50;99.90;;;;;;5068227;28;20726;-33
2021/05/11 00:47:32;;;;;;;3.70;3.40;;;15.30;99.90;;;;;;5068230;28;20423;-33
2021/05/11 00:49:58;;;;;;;3.80;3.50;;;15.30;99.90;;;;;;5067755;28;20488;-33
2021/05/11 00:52:23;;;;;;;3.57;3.07;;;15.30;99.90;;;;;;5062188;28;20444;-33
2021/05/11 00:54:49;;;;;;;4.73;4.23;;;15.30;99.90;;;;;;5062365;28;20228;-33
2021/05/11 00:57:16;;;;;;;5.80;4.20;;;15.30;99.90;;;;;;5068156;28;20197;-33
2021/05/11 00:59:42;;;;;;;4.13;3.73;;;15.20;99.90;;;;;;5067236;28;20236;-33
2021/05/11 01:02:09;;;;;;;5.13;4.63;;;15.20;99.90;;;;;;5068298;28;20442;-33
2021/05/11 01:04:36;;;;;;;4.10;3.80;;;15.10;99.90;;;;;;5068067;28;20434;-33
2021/05/11 01:07:03;;;;;;;4.17;3.87;;;15.20;99.90;;;;;;5064738;28;20443;-33
2021/05/11 01:09:28;;;;;;;4.27;3.97;;;15.20;99.90;;;;;;5061654;28;20527;-33
2021/05/11 01:11:56;;;;;;;3.90;3.50;;;15.10;99.90;;;;;;5067912;28;20888;-33
2021/05/11 01:14:25;;;;;;;4.70;4.30;;;15.10;99.90;;;;;;5067672;28;20283;-33
2021/05/11 01:16:55;;;;;;;6.33;4.40;;;15.10;99.90;;;;;;5068177;28;20423;-33
2021/05/11 01:19:38;;;;;;;4.13;3.73;;;15.20;99.90;;;;;;5067167;28;21187;-33
2021/05/11 01:24:49;;;;;;;4.40;4.03;;;15.10;99.90;;;;;;5074553;28;20444;-33
2021/05/11 01:32:50;;;;;;;4.47;4.07;;;15.00;99.90;;;;;;5086515;28;20415;-33
2021/05/11 01:46:41;;;;;;;4.93;4.40;;;15.00;99.90;;;;;;5071749;28;20802;-33
2021/05/11 01:51:55;;;;;;;6.37;4.60;;;15.00;99.90;;;;;;5071442;28;20502;-33
2021/05/11 02:24:36;;;;;;;4.00;3.70;;;14.90;99.90;;;;;;5066207;28;20806;-33
2021/05/11 02:27:02;;;;;;;5.13;4.73;;;14.80;99.90;;;;;;5070555;28;20421;-33
2021/05/11 02:29:28;;;;;;;5.27;4.87;;;14.80;99.90;;;;;;5070217;28;20203;-33
2021/05/11 02:31:53;;;;;;;4.90;4.50;;;14.80;99.90;;;;;;5070774;28;20481;-33
2021/05/11 02:34:19;;;;;;;4.90;4.40;;;14.80;99.90;;;;;;5070983;28;20308;-33
2021/05/11 02:36:45;;;;;;;4.93;4.43;;;14.80;99.90;;;;;;5070491;28;20211;-33
2021/05/11 02:39:10;;;;;;;5.60;5.00;;;14.80;99.90;;;;;;5063181;28;20280;-33
2021/05/11 02:41:36;;;;;;;4.70;4.30;;;14.80;99.90;;;;;;5070319;28;20698;-33
2021/05/11 02:44:02;;;;;;;5.13;4.73;;;14.80;99.90;;;;;;5088369;28;20216;-33
2021/05/11 02:46:27;;;;;;;5.43;4.90;;;14.80;99.90;;;;;;5087254;28;20191;-33
2021/05/11 02:48:55;;;;;;;4.90;4.60;;;14.80;99.90;;;;;;5087220;28;20184;-33
2021/05/11 02:51:20;;;;;;;4.40;4.00;;;14.70;99.90;;;;;;5090689;28;20187;-33
2021/05/11 02:53:46;;;;;;;5.40;5.00;;;14.70;99.90;;;;;;5076012;28;20843;-33
2021/05/11 02:56:12;;;;;;;5.13;4.73;;;14.70;99.90;;;;;;5065294;28;20244;-33
2021/05/11 02:58:38;;;;;;;5.50;5.10;;;14.70;99.90;;;;;;5077419;28;20816;-33
2021/05/11 03:01:03;;;;;;;4.63;4.23;;;14.70;99.90;;;;;;5090537;28;20262;-33
2021/05/11 03:03:29;;;;;;;5.60;5.10;;;14.70;99.90;;;;;;5088669;28;20430;-33
2021/05/11 03:05:55;;;;;;;5.17;4.77;;;14.80;99.90;;;;;;5090844;28;20189;-33
2021/05/11 03:08:20;;;;;;;5.10;4.70;;;14.70;99.90;;;;;;5082807;28;20224;-33
2021/05/11 03:10:46;;;;;;;5.00;4.60;;;14.70;99.90;;;;;;5060848;28;20197;-33
2021/05/11 03:13:11;;;;;;;5.23;4.83;;;14.70;99.90;;;;;;5070075;28;20181;-33
2021/05/11 03:15:37;;;;;;;5.80;5.23;;;14.70;99.90;;;;;;5079782;28;20271;-33
2021/05/11 03:18:03;;;;;;;6.53;5.93;;;14.70;99.90;;;;;;5080609;28;20188;-33
2021/05/11 03:20:28;;;;;;;5.30;4.90;;;14.70;99.90;;;;;;5089443;28;20298;-33
2021/05/11 03:22:54;;;;;;;6.43;5.93;;;14.70;99.90;;;;;;5090274;28;20188;-33
2021/05/11 03:25:20;;;;;;;5.03;4.63;;;14.70;99.90;;;;;;5060679;28;20193;-33
2021/05/11 03:27:45;;;;;;;8.07;5.40;;;14.70;99.90;;;;;;5069463;28;20585;-33
2021/05/11 03:30:12;;;;;;;5.47;5.00;;;14.70;99.90;;;;;;5069222;28;20197;-33
2021/05/11 03:32:37;;;;;;;5.23;4.83;;;14.70;99.90;;;;;;5069803;28;20200;-33
2021/05/11 03:35:04;;;;;;;5.50;5.10;;;14.70;99.90;;;;;;5069788;28;20434;-33
2021/05/11 03:37:29;;;;;;;6.00;5.50;;;14.70;99.90;;;;;;5069312;28;20238;-33
2021/05/11 03:39:55;;;;;;;5.47;5.07;;;14.70;99.90;;;;;;5063580;28;20471;-33
2021/05/11 03:42:31;;;;;;;5.43;4.93;;;14.60;99.90;;;;;;5076602;28;20193;-33
2021/05/11 03:45:01;;;;;;;5.90;5.40;;;14.60;99.90;;;;;;5069562;28;20199;-33
2021/05/11 03:47:28;;;;;;;5.37;4.97;;;14.60;99.90;;;;;;5068979;28;20940;-33
2021/05/11 03:49:54;;;;;;;5.37;4.87;;;14.60;99.90;;;;;;5068668;28;20424;-33
2021/05/11 03:52:19;;;;;;;6.03;5.40;;;14.60;99.90;;;;;;5069063;28;20438;-33
2021/05/11 03:54:45;;;;;;;5.60;5.20;;;14.60;99.90;;;;;;5057636;28;20198;-33
2021/05/11 03:57:12;;;;;;;5.60;5.20;;;14.60;99.90;;;;;;5066542;28;20223;-33
2021/05/11 03:59:38;;;;;;;5.60;5.10;;;14.60;99.90;;;;;;5068359;28;20217;-33
2021/05/11 04:02:04;;;;;;;5.50;5.00;;;14.60;99.90;;;;;;5069105;28;20539;-33
2021/05/11 04:04:31;;;;;;;5.90;5.50;;;14.60;99.90;;;;;;5069040;28;20185;-33
2021/05/11 04:06:56;;;;;;;5.37;4.87;;;14.60;99.90;;;;;;5084387;28;20423;-33
2021/05/11 04:09:36;;;;;;;5.43;5.03;;;14.60;99.90;;;;;;5063780;28;20885;-33
2021/05/11 04:12:29;;;;;;;5.70;5.30;;;14.50;99.90;;;;;;5066053;28;20200;-33
2021/05/11 04:17:35;;;;;;;5.87;5.37;;;14.50;99.90;;;;;;5088912;28;20473;-33
2021/05/11 04:20:00;;;;;;;5.90;5.40;;;14.50;99.90;;;;;;5087696;28;20852;-33
2021/05/11 04:22:26;;;;;;;6.40;5.80;;;14.50;99.90;;;;;;5089171;28;20555;-33
2021/05/11 04:24:54;;;;;;;6.20;5.70;;;14.50;99.90;;;;;;5077786;28;20255;-33
2021/05/11 04:27:19;;;;;;;6.63;5.83;;;14.50;99.90;;;;;;5064987;28;20196;-33
2021/05/11 04:29:48;;;;;;;7.07;6.33;;;14.50;99.90;;;;;;5083285;28;20541;-33
2021/05/11 04:32:13;;;;;;;6.30;5.73;;;14.50;99.90;;;;;;5088511;28;20271;-33
2021/05/11 04:34:39;;;;;;;7.40;6.07;;;14.50;99.90;;;;;;5079314;28;20549;-33
2021/05/11 04:37:05;;;;;;;6.83;6.23;;;14.60;99.90;;;;;;5088593;28;20215;-33
2021/05/11 04:39:30;;;;;;;6.30;5.80;;;14.50;99.90;;;;;;5086780;28;20232;-33
2021/05/11 04:41:56;;;;;;;6.60;5.97;;;14.60;99.90;;;;;;5057288;28;20211;-33
2021/05/11 04:44:26;;;;;;;6.50;5.90;;;14.60;99.90;;;;;;5070558;28;20189;-33
2021/05/11 04:46:59;;;;;;;5.93;5.33;;;14.60;99.90;;;;;;5081655;28;20571;-33
2021/05/11 04:49:25;;;;;;;6.40;5.90;;;14.60;99.90;;;;;;5085304;28;20929;-33
2021/05/11 04:51:51;;;;;;;6.40;5.87;;;14.60;99.90;;;;;;5088496;28;20437;-33
2021/05/11 04:54:16;;;;;;;6.80;6.23;;;14.60;99.90;;;;;;5088688;28;20505;-33
2021/05/11 04:56:42;;;;;;;6.50;6.00;;;14.50;99.90;;;;;;5061283;28;20230;-33
2021/05/11 04:59:08;;;;;;;7.30;6.63;;;14.50;99.90;;;;;;5067154;28;20197;-33
2021/05/11 05:01:34;;;;;;;6.90;6.30;;;14.60;99.90;;;;;;5082035;28;20957;-33
2021/05/11 05:04:01;;;;;;;7.70;7.00;;;14.60;99.90;;;;;;5082442;28;20209;-33
2021/05/11 05:06:27;;;;;;;6.67;6.03;;;14.60;99.90;;;;;;5082120;28;20521;-33
2021/05/11 05:08:52;;;;;;;7.07;6.47;;;14.50;99.90;;;;;;5087098;28;20537;-33
2021/05/11 05:11:18;;;;;;;7.10;6.30;;;14.50;99.90;;;;;;5070945;28;20216;-33
2021/05/11 05:13:44;;;;;;;6.43;5.73;;;14.50;99.90;;;;;;5080826;28;20279;-33
2021/05/11 05:16:10;;;;;;;7.90;6.50;;;14.50;99.90;;;;;;5086084;28;20206;-33
2021/05/11 05:18:36;;;;;;;8.20;7.40;;;14.50;99.90;;;;;;5070661;28;20443;-33
2021/05/11 05:21:06;;;;;;;7.50;6.50;;;14.50;99.90;;;;;;5065545;28;20288;-33
2021/05/11 05:23:42;;;;;;;7.70;6.93;;;14.50;99.90;;;;;;5076295;28;20179;-33
2021/05/11 05:26:14;;;;;;;7.10;6.50;;;14.50;99.90;;;;;;5067528;28;20883;-33
2021/05/11 05:28:42;;;;;;;8.03;6.67;;;14.50;99.90;;;;;;5067215;28;20451;-33
2021/05/11 05:31:08;;;;;;;7.27;6.57;;;14.50;99.90;;;;;;5066516;28;20443;-33
2021/05/11 05:33:39;;;;;;;7.30;6.60;;;14.60;99.90;;;;;;5068094;28;20945;-33
2021/05/11 05:36:07;;;;;;;8.03;7.00;;;14.50;99.90;;;;;;5055615;28;20443;-33
2021/05/11 05:38:34;;;;;;;7.67;6.97;;;14.50;99.90;;;;;;5067767;28;20419;-33
2021/05/11 05:41:07;;;;;;;7.03;6.33;;;14.50;99.90;;;;;;5066722;28;21023;-33
2021/05/11 05:43:33;;;;;;;8.47;7.67;;;14.50;99.90;;;;;;5067787;28;20462;-33
2021/05/11 05:45:59;;;;;;;8.40;7.63;;;14.50;99.90;;;;;;5067682;28;20439;-33
2021/05/11 05:48:25;;;;;;;7.27;6.57;;;14.50;99.90;;;;;;5067735;28;20915;-33
2021/05/11 05:50:55;;;;;;;8.93;8.13;;;14.50;99.90;;;;;;5067083;28;20250;-33
2021/05/11 05:53:39;;;;;;;7.57;6.97;;;14.50;99.90;;;;;;5064507;28;20192;-33
2021/05/11 05:56:06;;;;;;;8.70;7.80;;;14.50;99.90;;;;;;5067372;28;20430;-33
2021/05/11 05:58:32;;;;;;;8.60;7.13;;;14.50;99.90;;;;;;5073822;28;20825;-33
2021/05/11 06:01:04;;;;;;;8.73;7.83;;;14.60;99.90;;;;;;5078103;28;20498;-33
2021/05/11 06:06:09;;;;;;;8.80;7.90;;;14.60;99.90;;;;;;5072980;28;20430;-33
2021/05/11 06:08:38;;;;;;;8.17;7.37;;;14.70;99.90;;;;;;5067109;28;20966;-33
2021/05/11 06:11:15;;;;;;;8.57;7.73;;;14.60;99.90;;;;;;5056626;28;20948;-33
2021/05/11 06:13:52;;;;;;;8.60;7.80;;;14.70;99.90;;;;;;5066688;28;20470;-33
2021/05/11 06:19:03;;;;;;;8.40;7.47;;;14.80;99.90;;;;;;5078210;28;20435;-33
2021/05/11 06:21:28;;;;;;;7.20;6.50;;;14.80;99.90;;;;;;5069688;28;20473;-33
2021/05/11 06:23:54;;;;;;;10.33;7.67;;;14.80;99.90;;;;;;5083040;28;20978;-33
2021/05/11 06:26:20;;;;;;;8.60;7.70;;;14.80;99.90;;;;;;5068394;28;20222;-33
2021/05/11 06:28:46;;;;;;;8.43;7.20;;;14.80;99.90;;;;;;5077864;28;20236;-33
2021/05/11 06:31:12;;;;;;;8.87;7.97;;;14.80;99.90;;;;;;5071064;28;20472;-33
2021/05/11 06:33:38;;;;;;;9.70;8.77;;;14.80;99.90;;;;;;5074744;28;20196;-33
2021/05/11 06:36:04;;;;;;;8.73;7.40;;;14.90;99.90;;;;;;5070756;28;20227;-33
2021/05/11 06:38:31;;;;;;;9.37;7.80;;;15.00;99.90;;;;;;5070934;28;20271;-33
2021/05/11 06:40:57;;;;;;;8.40;7.60;;;15.00;99.90;;;;;;5065814;28;20483;-33
2021/05/11 06:43:28;;;;;;;7.90;7.20;;;15.10;99.90;;;;;;5061760;28;21136;-33
2021/05/11 06:48:28;;;;;;;8.17;7.13;;;15.10;99.90;;;;;;5069356;28;20462;-33
2021/05/11 06:53:39;;;;;;;8.20;7.50;;;15.10;99.90;;;;;;5070144;28;20427;-33
2021/05/11 06:56:06;;;;;;;9.73;7.90;;;15.10;99.90;;;;;;5065993;28;20437;-33
2021/05/11 06:58:31;;;;;;;8.37;7.43;;;15.10;99.90;;;;;;5068133;28;20416;-33
2021/05/11 07:00:57;;;;;;;9.50;8.60;;;15.20;99.90;;;;;;5069298;28;20477;-33
2021/05/11 07:03:23;;;;;;;9.10;8.10;;;15.10;99.90;;;;;;5071073;28;20181;-33
2021/05/11 07:05:51;;;;;;;9.37;8.40;;;15.10;99.90;;;;;;5069638;28;20606;-33
2021/05/11 07:11:12;;;;;;;9.27;8.30;;;15.10;99.90;;;;;;5064847;28;20439;-33
2021/05/11 07:13:38;;;;;;;8.53;7.77;;;15.10;99.90;;;;;;5064250;28;20485;-33
2021/05/11 07:16:03;;;;;;;11.33;8.70;;;15.10;99.90;;;;;;5069406;28;21077;-33
2021/05/11 07:18:31;;;;;;;10.03;9.10;;;15.20;99.90;;;;;;5069969;28;20208;-33
2021/05/11 07:21:00;;;;;;;10.73;9.63;;;15.20;99.90;;;;;;5067551;28;20474;-33
2021/05/11 07:23:28;;;;;;;10.70;9.70;;;15.30;99.90;;;;;;5068811;28;20427;-33
2021/05/11 07:30:57;;;;;;;11.63;10.50;;;15.40;99.90;;;;;;5071396;28;20423;-33
2021/05/11 07:33:26;;;;;;;11.57;10.57;;;15.50;99.90;;;;;;5089234;28;20930;-33
2021/05/11 07:35:51;;;;;;;11.87;10.67;;;15.50;99.90;;;;;;5073779;28;20483;-33
2021/05/11 07:38:17;;;;;;;13.57;12.27;;;15.60;99.90;;;;;;5087140;28;20823;-33
2021/05/11 07:40:43;;;;;;;12.67;11.47;;;15.50;99.90;;;;;;5088036;28;20212;-33
2021/05/11 07:43:10;;;;;;;13.97;12.67;;;15.50;99.90;;;;;;5060030;28;20201;-33
2021/05/11 08:02:03;;;;;;;12.73;11.43;;;15.60;99.90;;;;;;5069071;28;20483;-33
2021/05/11 08:15:06;;;;;;;11.03;9.93;;;16.00;99.90;;;;;;5065978;28;20458;-33
2021/05/11 08:17:37;;;;;;;12.00;10.90;;;16.10;99.90;;;;;;5068874;28;20427;-33
2021/05/11 08:20:29;;;;;;;12.20;11.07;;;16.20;99.90;;;;;;5068134;28;20520;-33
2021/05/11 08:28:29;;;;;;;10.80;9.77;;;16.30;99.90;;;;;;5053802;28;20440;-33
2021/05/11 08:30:55;;;;;;;10.30;9.30;;;16.40;99.90;;;;;;5066533;28;20419;-33
2021/05/11 08:33:21;;;;;;;10.23;9.33;;;16.40;99.90;;;;;;5063018;28;20428;-33
2021/05/11 08:35:49;;;;;;;9.20;8.33;;;16.40;99.90;;;;;;5063523;28;20438;-33
2021/05/11 08:38:14;;;;;;;7.80;7.00;;;16.40;99.90;;;;;;5067880;28;20799;-33
2021/05/11 08:40:40;;;;;;;9.50;8.50;;;16.50;99.90;;;;;;5067178;28;20502;-33
2021/05/11 08:43:29;;;;;;;8.70;8.00;;;16.40;99.90;;;;;;5059366;28;20276;-33
2021/05/11 08:45:56;;;;;;;9.93;8.67;;;16.40;99.90;;;;;;5064098;28;20196;-33
2021/05/11 08:48:23;;;;;;;10.27;8.23;;;16.40;99.90;;;;;;5079782;28;20537;-33
2021/05/11 08:50:55;;;;;;;8.77;7.97;;;16.40;99.90;;;;;;5082653;28;20432;-33
2021/05/11 08:53:45;;;;;;;8.63;7.30;;;16.50;99.90;;;;;;5081448;28;20922;-33
2021/05/11 09:30:03;;;;;;;9.30;8.40;;;16.60;99.90;;;;;;5053734;28;20593;-33
2021/05/11 09:32:41;;;;;;;9.77;8.93;;;16.60;99.90;;;;;;5064820;28;20441;-33
2021/05/11 10:47:14;;;;;;;8.60;7.80;;;16.40;99.90;;;;;;5059282;28;20443;-33
2021/05/11 10:49:35;;;;;;;9.83;8.13;;;16.40;99.90;;;;;;5054622;28;20450;-33
2021/05/11 10:52:05;;;;;;;9.60;7.67;;;16.30;99.90;;;;;;5069959;28;20431;-33
2021/05/11 10:54:36;;;;;;;9.00;8.10;;;16.40;99.90;;;;;;5069635;28;20850;-33
2021/05/11 10:57:04;;;;;;;8.73;7.93;;;16.40;99.90;;;;;;5070001;28;20781;-33
2021/05/11 11:04:43;;;;;;;8.13;7.20;;;16.60;99.90;;;;;;5069748;28;20424;-33
2021/05/11 11:07:09;;;;;;;7.77;5.57;;;16.60;99.90;;;;;;5064447;28;20183;-33
2021/05/11 11:09:40;;;;;;;5.73;5.20;;;16.60;99.90;;;;;;5065115;28;20561;-33
2021/05/11 11:12:08;;;;;;;5.17;4.33;;;16.60;99.90;;;;;;5069467;28;20181;-33
2021/05/11 11:14:39;;;;;;;3.83;3.43;;;16.60;99.90;;;;;;5067063;28;20793;-33
2021/05/11 11:17:11;;;;;;;4.57;3.10;;;16.60;99.90;;;;;;5065182;28;20888;-33
2021/05/11 11:19:37;;;;;;;3.20;2.90;;;16.60;99.90;;;;;;5076947;28;20424;-33
2021/05/11 11:24:55;;;;;;;3.27;2.80;;;16.70;99.90;;;;;;5075393;28;20434;-33
2021/05/11 11:27:31;;;;;;;4.37;3.70;;;16.70;99.90;;;;;;5089427;28;20432;-33
2021/05/11 11:29:59;;;;;;;3.20;2.90;;;16.70;99.90;;;;;;5075869;28;20273;-33
2021/05/11 11:32:24;;;;;;;4.30;3.90;;;16.70;99.90;;;;;;5065955;28;20432;-33
2021/05/11 11:34:55;;;;;;;5.97;4.57;;;16.70;99.90;;;;;;5069268;28;20481;-33
2021/05/11 11:37:23;;;;;;;7.10;6.40;;;16.70;99.90;;;;;;5068846;28;20193;-33
2021/05/11 11:39:51;;;;;;;8.10;7.27;;;16.70;99.90;;;;;;5068532;28;20521;-33
2021/05/11 11:42:26;;;;;;;7.90;7.20;;;16.50;99.90;;;;;;5069038;28;20510;-33
2021/05/11 11:45:00;;;;;;;9.43;8.63;;;16.40;99.90;;;;;;5067467;28;20457;-33
2021/05/11 11:47:27;;;;;;;9.67;8.70;;;16.40;99.90;;;;;;5072492;28;20445;-33
2021/05/11 11:50:03;;;;;;;11.00;9.90;;;16.50;99.90;;;;;;5068441;28;20810;-33
2021/05/11 12:00:32;;;;;;;9.90;8.90;;;16.40;99.90;;;;;;5060452;28;20476;-33
2021/05/11 12:03:06;;;;;;;10.00;9.00;;;16.30;99.90;;;;;;5062436;28;20520;-33
2021/05/11 12:05:54;;;;;;;10.43;9.47;;;16.30;99.90;;;;;;5068731;28;20422;-33
2021/05/11 12:08:23;;;;;;;7.97;7.17;;;16.30;99.90;;;;;;5068610;28;20438;-33
2021/05/11 12:10:57;;;;;;;8.83;8.03;;;16.40;99.90;;;;;;5062882;28;20919;-33
2021/05/11 12:13:25;;;;;;;9.17;8.37;;;16.40;99.90;;;;;;5080479;28;20434;-33
2021/05/11 12:16:17;;;;;;;9.10;7.87;;;16.40;99.90;;;;;;5059099;28;20450;-33
2021/05/11 12:19:16;;;;;;;8.07;7.07;;;16.40;99.90;;;;;;5066497;28;20423;-33
2021/05/11 12:22:04;;;;;;;9.30;7.50;;;16.30;99.90;;;;;;5060447;28;20486;-33
2021/05/11 12:24:41;;;;;;;6.90;6.30;;;16.10;99.90;;;;;;5068786;28;20804;-33
2021/05/11 12:27:11;;;;;;;6.63;6.03;;;16.10;99.90;;;;;;5068440;28;20434;-33
2021/05/11 12:29:37;;;;;;;7.17;6.47;;;16.10;99.90;;;;;;5067601;28;20816;-33
2021/05/11 12:32:03;;;;;;;7.47;6.70;;;16.20;99.90;;;;;;5056219;28;20451;-33
2021/05/11 12:34:29;;;;;;;6.00;5.50;;;16.10;99.90;;;;;;5073471;28;20200;-33
2021/05/11 12:36:58;;;;;;;6.30;5.70;;;16.10;99.90;;;;;;5088818;28;20754;-33
2021/05/11 12:42:14;;;;;;;6.23;5.33;;;16.20;99.90;;;;;;5088735;28;20476;-33
2021/05/11 12:44:39;;;;;;;5.40;4.90;;;16.10;99.90;;;;;;5088248;28;20925;-33
2021/05/11 12:47:06;;;;;;;6.23;5.73;;;16.10;99.90;;;;;;5057842;28;20431;-33
2021/05/11 12:49:32;;;;;;;5.80;5.30;;;16.00;99.90;;;;;;5071315;28;20268;-33
2021/05/11 12:51:59;;;;;;;6.10;5.60;;;16.00;99.90;;;;;;5083676;28;20514;-33
2021/05/11 12:54:43;;;;;;;6.60;5.47;;;16.00;99.90;;;;;;5086878;28;20428;-33
2021/05/11 13:28:21;;;;;;;7.07;6.47;;;15.80;99.90;;;;;;5067736;28;20451;-33
2021/05/11 13:33:31;;;;;;;7.17;6.47;;;15.90;99.90;;;;;;5067910;28;20468;-33
2021/05/11 13:35:56;;;;;;;7.50;6.80;;;15.90;99.90;;;;;;5069120;28;20434;-33
2021/05/11 13:38:23;;;;;;;7.43;6.83;;;15.90;99.90;;;;;;5067315;28;20831;-33
2021/05/11 13:40:50;;;;;;;7.73;6.93;;;15.90;99.90;;;;;;5086451;28;20215;-33
2021/05/11 13:43:16;;;;;;;7.40;6.80;;;16.00;99.90;;;;;;5091925;28;20445;-33
2021/05/11 13:45:42;;;;;;;7.60;6.90;;;16.00;99.90;;;;;;5067399;28;20452;-33
2021/05/11 13:53:08;;;;;;;7.50;6.80;;;16.00;99.90;;;;;;5071840;28;20427;-33
2021/05/11 13:55:41;;;;;;;7.77;7.03;;;16.00;99.90;;;;;;5071651;28;21177;-33
2021/05/11 14:03:36;;;;;;;8.93;8.10;;;15.80;99.90;;;;;;5069554;28;20439;-33
2021/05/11 14:06:01;;;;;;;6.77;6.07;;;15.80;99.90;;;;;;5080441;28;20429;-33
2021/05/11 14:08:27;;;;;;;7.77;7.07;;;15.70;99.90;;;;;;5091703;28;20215;-33
2021/05/11 14:10:53;;;;;;;8.30;7.60;;;15.70;99.90;;;;;;5082532;28;20192;-33
2021/05/11 14:13:19;;;;;;;8.40;7.60;;;15.70;99.90;;;;;;5087099;28;20675;-33
2021/05/11 14:15:45;;;;;;;7.80;7.10;;;15.70;99.90;;;;;;5079105;28;20205;-33
2021/05/11 14:18:10;;;;;;;8.43;7.50;;;15.60;99.90;;;;;;5059425;28;20525;-33
2021/05/11 14:20:36;;;;;;;7.53;6.83;;;15.60;99.90;;;;;;5086030;28;20219;-33
2021/05/11 14:23:02;;;;;;;7.80;7.10;;;15.50;99.90;;;;;;5070857;28;20184;-33
2021/05/11 14:25:27;;;;;;;7.77;6.97;;;15.50;99.90;;;;;;5071070;28;20315;-33
2021/05/11 14:27:53;;;;;;;7.73;7.03;;;15.40;99.90;;;;;;5070680;28;20223;-33
2021/05/11 14:30:19;;;;;;;8.00;7.30;;;15.40;99.90;;;;;;5048983;28;20816;-33
2021/05/11 14:32:45;;;;;;;8.30;7.50;;;15.40;99.90;;;;;;5056713;28;20549;-33
2021/05/11 14:35:11;;;;;;;7.90;7.20;;;15.40;99.90;;;;;;5070771;28;20439;-33
2021/05/11 14:37:36;;;;;;;8.40;7.00;;;15.40;99.90;;;;;;5070645;28;20685;-33
2021/05/11 14:40:03;;;;;;;7.53;6.83;;;15.40;99.90;;;;;;5070155;28;20455;-33
2021/05/11 14:42:29;;;;;;;6.90;6.30;;;15.40;99.90;;;;;;5069412;28;20185;-33
2021/05/11 14:44:55;;;;;;;6.97;6.37;;;15.40;99.90;;;;;;5070663;28;20422;-33
2021/05/11 14:47:20;;;;;;;7.10;6.50;;;15.40;99.90;;;;;;5061113;28;20189;-33
2021/05/11 14:49:46;;;;;;;8.93;8.13;;;15.40;99.90;;;;;;5069646;28;20275;-33
2021/05/11 14:52:13;;;;;;;8.93;7.03;;;15.50;99.90;;;;;;5070579;28;20723;-33
2021/05/11 14:54:40;;;;;;;7.77;7.07;;;15.50;99.90;;;;;;5070405;28;20192;-33
2021/05/11 14:57:06;;;;;;;8.60;7.80;;;15.50;99.90;;;;;;5070307;28;20420;-33
2021/05/11 14:59:31;;;;;;;7.87;7.10;;;15.50;99.90;;;;;;5070221;28;20432;-33
2021/05/11 15:01:57;;;;;;;7.50;6.80;;;15.50;99.90;;;;;;5063836;28;20520;-33
2021/05/11 15:04:23;;;;;;;8.30;7.50;;;15.60;99.90;;;;;;5066758;28;20634;-33
2021/05/11 15:06:48;;;;;;;9.03;8.13;;;15.60;99.90;;;;;;5078336;28;20661;-33
2021/05/11 15:09:14;;;;;;;9.43;8.53;;;15.70;99.90;;;;;;5087925;28;21083;-33
2021/05/11 15:11:40;;;;;;;10.00;8.40;;;15.60;99.90;;;;;;5089777;28;20296;-33
2021/05/11 15:14:06;;;;;;;7.97;7.17;;;15.60;99.90;;;;;;5079839;28;20212;-33
2021/05/11 15:16:37;;;;;;;9.33;8.43;;;15.70;99.90;;;;;;5083770;28;20322;-33
2021/05/11 15:19:04;;;;;;;8.40;7.60;;;15.70;99.90;;;;;;5065037;28;20197;-33
2021/05/11 15:21:30;;;;;;;8.50;7.70;;;15.70;99.90;;;;;;5074058;28;20470;-33
2021/05/11 15:23:56;;;;;;;7.73;7.03;;;15.70;99.90;;;;;;5090252;28;20511;-33
2021/05/11 15:26:23;;;;;;;9.30;8.40;;;15.70;99.90;;;;;;5081845;28;20505;-33
2021/05/11 15:28:48;;;;;;;8.13;7.33;;;15.80;99.90;;;;;;5089466;28;20193;-33
2021/05/11 15:31:14;;;;;;;9.00;7.93;;;15.80;99.90;;;;;;5090189;28;20954;-33
2021/05/11 15:33:40;;;;;;;9.17;8.27;;;15.90;99.90;;;;;;5056319;28;20194;-33
2021/05/11 15:36:06;;;;;;;8.37;7.67;;;15.90;99.90;;;;;;5070922;28;20453;-33
2021/05/11 15:38:32;;;;;;;9.67;8.70;;;15.90;99.90;;;;;;5080974;28;20180;-33
2021/05/11 15:40:58;;;;;;;8.27;7.50;;;15.90;99.90;;;;;;5085349;28;20832;-33
2021/05/11 15:43:24;;;;;;;9.63;8.63;;;15.90;99.90;;;;;;5089585;28;20184;-33
2021/05/11 15:45:51;;;;;;;9.40;8.60;;;15.90;99.90;;;;;;5089715;28;20425;-33
2021/05/11 15:48:16;;;;;;;8.00;7.30;;;15.90;99.90;;;;;;5063035;28;20517;-33
2021/05/11 15:50:45;;;;;;;11.23;7.20;;;15.90;99.90;;;;;;5068053;28;20435;-33
2021/05/11 15:53:13;;;;;;;9.30;8.50;;;16.00;99.90;;;;;;5064604;28;20196;-33
2021/05/11 15:55:40;;;;;;;9.20;8.30;;;16.00;99.90;;;;;;5067796;28;20496;-33
2021/05/11 15:58:07;;;;;;;11.27;10.23;;;16.00;99.90;;;;;;5070879;28;20438;-33
2021/05/11 16:00:39;;;;;;;11.73;10.53;;;16.00;99.90;;;;;;5078974;28;20549;-33
2021/05/11 16:03:05;;;;;;;11.33;10.33;;;15.90;99.90;;;;;;5065272;28;20440;-33
2021/05/11 16:05:37;;;;;;;11.70;10.70;;;15.70;99.90;;;;;;5068729;28;20427;-33
2021/05/11 16:08:05;;;;;;;12.83;11.57;;;15.60;99.90;;;;;;5068829;28;20455;-33
2021/05/11 16:10:31;;;;;;;13.30;12.03;;;15.40;99.90;;;;;;5060371;28;20448;-33
2021/05/11 16:12:58;;;;;;;13.23;11.93;;;15.40;99.90;;;;;;5070013;28;20536;-33
2021/05/11 16:15:24;;;;;;;13.17;11.77;;;15.30;99.90;;;;;;5083232;28;20418;-33
2021/05/11 16:17:50;;;;;;;13.13;11.83;;;15.40;99.90;;;;;;5068534;28;20443;-33
2021/05/11 16:20:15;;;;;;;13.30;11.43;;;15.40;99.90;;;;;;5066986;28;20200;-33
2021/05/11 16:22:41;;;;;;;14.27;12.83;;;15.30;99.90;;;;;;5068809;28;20203;-33
2021/05/11 16:25:09;;;;;;;13.83;12.40;;;15.30;99.90;;;;;;5088436;28;20196;-33
2021/05/11 16:27:36;;;;;;;13.60;12.20;;;15.20;99.90;;;;;;5083511;28;20427;-33
2021/05/11 16:30:03;;;;;;;13.40;12.10;;;15.20;99.90;;;;;;5087763;28;20425;-33
2021/05/11 16:32:28;;;;;;;12.97;11.70;;;15.30;99.90;;;;;;5073278;28;20526;-33
2021/05/11 16:34:54;;;;;;;12.90;11.70;;;15.30;99.90;;;;;;5073125;28;20830;-33
2021/05/11 16:37:20;;;;;;;11.27;10.27;;;15.30;99.90;;;;;;5074062;28;20188;-33
2021/05/11 16:39:45;;;;;;;11.37;10.27;;;15.20;99.90;;;;;;5072481;28;20275;-33
2021/05/11 16:42:12;;;;;;;10.80;9.80;;;15.00;99.90;;;;;;5065955;28;20188;-33
2021/05/11 16:44:38;;;;;;;11.37;10.00;;;15.10;99.90;;;;;;5078447;28;20193;-33
2021/05/11 16:47:05;;;;;;;11.63;10.43;;;15.10;99.90;;;;;;5073464;28;20450;-33
2021/05/11 16:49:30;;;;;;;10.13;9.13;;;15.10;99.90;;;;;;5059518;28;20182;-33
2021/05/11 16:51:56;;;;;;;10.90;9.97;;;15.00;99.90;;;;;;5067460;28;20963;-33
2021/05/11 16:54:22;;;;;;;11.10;10.00;;;15.00;99.90;;;;;;5067683;28;20196;-33
2021/05/11 16:56:49;;;;;;;10.80;9.87;;;15.00;99.90;;;;;;5067632;28;20827;-33
2021/05/11 16:59:15;;;;;;;12.20;10.90;;;14.90;99.90;;;;;;5065128;28;21598;-33
2021/05/11 17:01:41;;;;;;;12.03;10.93;;;14.70;99.90;;;;;;5057165;28;20586;-33
2021/05/11 17:04:07;;;;;;;11.27;10.17;;;14.70;99.90;;;;;;5062762;28;20287;-33
2021/05/11 17:06:34;;;;;;;11.10;10.07;;;14.80;99.90;;;;;;5067757;28;20262;-34
2021/05/11 17:09:10;;;;;;;12.80;11.60;;;14.80;99.90;;;;;;5064821;28;20458;-33
2021/05/11 17:11:37;;;;;;;13.10;11.07;;;14.90;99.90;;;;;;5071636;28;20435;-33
2021/05/11 17:14:05;;;;;;;13.67;12.33;;;14.90;99.90;;;;;;5081501;28;20457;-33
2021/05/11 17:16:30;;;;;;;13.77;12.37;;;14.90;99.90;;;;;;5080865;28;20424;-33
2021/05/11 17:18:56;;;;;;;14.53;13.03;;;15.00;99.90;;;;;;5071989;28;20486;-33
2021/05/11 17:21:25;;;;;;;14.40;12.90;;;15.00;99.90;;;;;;5059662;28;20229;-33